Time;durP1;ratioP1;P1;durP2;ratioP2;P2;SDS_P1;SDS_P2;PMS_P1;PMS_P2;Temp;Humidity;BMP_temperature;BMP_pressure;BME280_temperature;BME280_humidity;BME280_pressure;Samples;Min_cycle;Max_cycle;Signal;HPM_P1;HPM_P2
2022/04/11 00:02:53;;;;;;;3.50;2.00;;;6.30;95.80;;;;;;5113178;28;20043;-73
2022/04/11 00:05:57;;;;;;;5.50;2.30;;;6.30;95.80;;;;;;5113043;28;20036;-73
2022/04/11 00:09:00;;;;;;;4.68;2.25;;;6.30;95.90;;;;;;5113348;28;20042;-73
2022/04/11 00:12:05;;;;;;;9.25;4.55;;;6.30;95.80;;;;;;5112916;28;20055;-73
2022/04/11 00:15:09;;;;;;;6.75;3.47;;;6.40;95.60;;;;;;5110823;28;20039;-73
2022/04/11 00:18:13;;;;;;;4.47;2.72;;;6.30;95.90;;;;;;5112341;28;20486;-73
2022/04/11 00:21:17;;;;;;;4.75;2.35;;;6.30;96.30;;;;;;5112479;28;20047;-73
2022/04/11 00:24:21;;;;;;;3.20;1.98;;;6.20;96.00;;;;;;5112591;28;20660;-73
2022/04/11 00:27:25;;;;;;;5.30;2.40;;;6.20;95.70;;;;;;5111874;28;20042;-73
2022/04/11 00:30:29;;;;;;;3.95;2.85;;;6.30;95.90;;;;;;5112791;28;20044;-73
2022/04/11 00:33:33;;;;;;;3.40;1.80;;;6.30;96.00;;;;;;5112643;28;20479;-73
2022/04/11 00:36:37;;;;;;;4.75;2.28;;;6.30;96.20;;;;;;5111917;28;20035;-73
2022/04/11 00:39:41;;;;;;;5.60;2.30;;;6.40;96.50;;;;;;5112272;28;20042;-73
2022/04/11 00:42:49;;;;;;;5.35;2.40;;;6.30;96.40;;;;;;5111607;28;20103;-73
2022/04/11 00:45:53;;;;;;;5.25;2.90;;;6.30;96.60;;;;;;5112244;28;20382;-73
2022/04/11 00:48:57;;;;;;;3.72;2.35;;;6.30;96.30;;;;;;5112481;28;20357;-73
2022/04/11 00:52:03;;;;;;;5.57;1.80;;;6.30;96.00;;;;;;5110857;28;20040;-72
2022/04/11 00:55:08;;;;;;;5.10;1.70;;;6.30;96.00;;;;;;5111924;28;20039;-73
2022/04/11 00:58:13;;;;;;;4.55;1.80;;;6.30;95.70;;;;;;5111444;28;20570;-73
2022/04/11 01:01:16;;;;;;;3.90;1.77;;;6.30;95.60;;;;;;5111841;28;20044;-72
2022/04/11 01:04:24;;;;;;;3.63;1.98;;;6.30;95.70;;;;;;5111099;28;20035;-73
2022/04/11 01:07:28;;;;;;;4.53;2.22;;;6.30;95.80;;;;;;5110778;28;20052;-73
2022/04/11 01:10:32;;;;;;;5.15;2.20;;;6.20;95.90;;;;;;5112120;28;20046;-73
2022/04/11 01:13:37;;;;;;;4.20;1.95;;;6.20;96.20;;;;;;5111691;28;20035;-73
2022/04/11 01:16:50;;;;;;;6.25;2.28;;;6.10;96.40;;;;;;5110175;28;20020;-73
2022/04/11 01:19:54;;;;;;;4.30;2.10;;;6.10;96.70;;;;;;5110637;28;20047;-73
2022/04/11 01:22:58;;;;;;;3.95;2.00;;;6.00;96.90;;;;;;5111697;28;20035;-73
2022/04/11 01:26:02;;;;;;;3.70;2.13;;;6.00;97.10;;;;;;5110405;28;20050;-73
2022/04/11 01:29:09;;;;;;;4.50;2.25;;;5.90;97.30;;;;;;5110203;28;20032;-73
2022/04/11 01:32:14;;;;;;;2.85;1.90;;;5.80;97.70;;;;;;5110450;28;20513;-73
2022/04/11 01:35:24;;;;;;;3.80;2.42;;;5.70;98.20;;;;;;5110474;28;20042;-73
2022/04/11 01:38:30;;;;;;;3.95;2.17;;;5.60;98.40;;;;;;5109902;28;20591;-73
2022/04/11 01:41:34;;;;;;;5.03;2.17;;;5.60;98.90;;;;;;5110314;28;20039;-73
2022/04/11 01:44:39;;;;;;;3.08;1.98;;;5.50;98.90;;;;;;5110555;28;20032;-73
2022/04/11 01:47:43;;;;;;;4.47;1.88;;;5.50;99.20;;;;;;5109759;28;20046;-73
2022/04/11 01:50:48;;;;;;;4.40;2.33;;;5.50;99.10;;;;;;5110090;28;20032;-73
2022/04/11 01:53:52;;;;;;;3.85;2.35;;;5.50;99.40;;;;;;5111356;28;20232;-73
2022/04/11 01:56:56;;;;;;;5.05;2.72;;;5.50;99.50;;;;;;5110812;28;20031;-73
2022/04/11 02:00:00;;;;;;;5.68;2.50;;;5.40;99.70;;;;;;5110296;28;20501;-73
2022/04/11 02:03:05;;;;;;;10.18;3.20;;;5.40;99.80;;;;;;5110748;28;20047;-73
2022/04/11 02:06:10;;;;;;;7.43;4.03;;;5.30;99.90;;;;;;5110108;28;20473;-73
2022/04/11 02:09:13;;;;;;;10.07;4.70;;;5.30;99.90;;;;;;5110787;28;20052;-73
2022/04/11 02:12:17;;;;;;;20.17;11.27;;;5.30;99.90;;;;;;5111589;28;20055;-73
2022/04/11 02:15:22;;;;;;;13.45;8.07;;;5.30;99.90;;;;;;5110488;28;20050;-73
2022/04/11 02:18:26;;;;;;;5.55;2.80;;;5.20;99.90;;;;;;5110913;28;20047;-73
2022/04/11 02:21:31;;;;;;;5.78;2.50;;;5.20;99.90;;;;;;5111499;28;20047;-72
2022/04/11 02:24:36;;;;;;;4.07;2.58;;;5.10;99.90;;;;;;5110345;28;20052;-73
2022/04/11 02:27:41;;;;;;;6.13;3.03;;;5.10;99.90;;;;;;5110589;28;20051;-73
2022/04/11 02:30:46;;;;;;;6.25;3.35;;;5.00;99.90;;;;;;5110791;28;20036;-73
2022/04/11 02:33:50;;;;;;;7.15;2.75;;;5.00;99.90;;;;;;5110478;28;20046;-73
2022/04/11 02:36:54;;;;;;;4.50;3.15;;;4.90;99.90;;;;;;5109795;28;20089;-73
2022/04/11 02:39:58;;;;;;;9.13;3.90;;;4.80;99.90;;;;;;5113166;28;20047;-73
2022/04/11 02:43:03;;;;;;;6.30;4.00;;;4.70;99.90;;;;;;5113453;28;20040;-72
2022/04/11 02:46:10;;;;;;;6.90;3.20;;;4.60;99.90;;;;;;5113173;28;20035;-73
2022/04/11 02:49:15;;;;;;;7.15;3.38;;;4.50;99.90;;;;;;5113937;28;20035;-73
2022/04/11 02:52:43;;;;;;;6.45;2.78;;;4.30;99.90;;;;;;5113478;28;20052;-73
2022/04/11 02:55:47;;;;;;;6.00;3.00;;;4.30;99.90;;;;;;5113561;28;20048;-73
2022/04/11 02:58:52;;;;;;;5.93;2.80;;;4.30;99.90;;;;;;5113416;28;20040;-73
2022/04/11 03:01:56;;;;;;;4.03;2.78;;;4.30;99.90;;;;;;5113415;28;20039;-73
2022/04/11 03:05:01;;;;;;;5.72;2.60;;;4.30;99.90;;;;;;5113389;28;20051;-72
2022/04/11 03:08:05;;;;;;;4.35;2.63;;;4.30;99.90;;;;;;5112508;28;20051;-73
2022/04/11 03:11:09;;;;;;;4.50;2.67;;;4.20;99.90;;;;;;5114324;28;20520;-73
2022/04/11 03:14:13;;;;;;;7.07;3.00;;;4.20;99.90;;;;;;5112955;28;20036;-73
2022/04/11 03:17:18;;;;;;;3.78;2.92;;;4.20;99.90;;;;;;5112433;28;20364;-73
2022/04/11 03:20:22;;;;;;;5.78;3.08;;;4.20;99.90;;;;;;5112965;28;20047;-73
2022/04/11 03:23:27;;;;;;;3.80;2.67;;;4.10;99.90;;;;;;5112901;28;20040;-73
2022/04/11 03:26:34;;;;;;;5.93;3.20;;;4.10;99.90;;;;;;5112345;28;20050;-73
2022/04/11 03:29:40;;;;;;;6.60;3.00;;;4.10;99.90;;;;;;5112815;28;20051;-72
2022/04/11 03:32:45;;;;;;;4.47;2.83;;;4.00;99.90;;;;;;5112893;28;20654;-73
2022/04/11 03:35:51;;;;;;;5.95;3.72;;;3.90;99.90;;;;;;5113025;28;20039;-73
2022/04/11 03:38:55;;;;;;;6.03;3.00;;;3.90;99.90;;;;;;5112929;28;20113;-73
2022/04/11 03:42:02;;;;;;;5.63;2.65;;;3.80;99.90;;;;;;5112901;28;20051;-72
2022/04/11 03:45:11;;;;;;;4.32;2.65;;;3.80;99.90;;;;;;5113204;28;20480;-73
2022/04/11 03:48:22;;;;;;;6.82;2.80;;;3.80;99.90;;;;;;5112419;28;20042;-73
2022/04/11 03:51:26;;;;;;;5.07;3.05;;;3.90;99.90;;;;;;5112051;28;20039;-73
2022/04/11 03:54:30;;;;;;;6.95;3.95;;;3.90;99.90;;;;;;5113044;28;20050;-72
2022/04/11 03:57:36;;;;;;;8.98;3.17;;;4.00;99.90;;;;;;5111630;28;20032;-73
2022/04/11 04:00:41;;;;;;;5.55;3.40;;;4.00;99.90;;;;;;5112475;28;20052;-72
2022/04/11 04:03:56;;;;;;;6.25;3.55;;;4.00;99.90;;;;;;5112056;28;20042;-72
2022/04/11 04:07:00;;;;;;;7.32;3.60;;;4.00;99.90;;;;;;5111169;28;20046;-71
2022/04/11 04:10:05;;;;;;;8.43;3.83;;;3.90;99.90;;;;;;5112092;28;20074;-72
2022/04/11 04:13:10;;;;;;;6.43;3.63;;;3.80;99.90;;;;;;5111733;28;20040;-72
2022/04/11 04:16:16;;;;;;;9.38;4.18;;;3.80;99.90;;;;;;5111349;28;20044;-72
2022/04/11 04:19:26;;;;;;;7.78;3.38;;;3.80;99.90;;;;;;5111667;28;20047;-73
2022/04/11 04:22:32;;;;;;;18.88;7.20;;;3.70;99.90;;;;;;5112019;28;21328;-73
2022/04/11 04:25:36;;;;;;;6.05;3.95;;;3.70;99.90;;;;;;5111774;28;20052;-72
2022/04/11 04:28:41;;;;;;;11.57;4.60;;;3.60;99.90;;;;;;5111585;28;20046;-72
2022/04/11 04:31:47;;;;;;;6.47;3.85;;;3.70;99.90;;;;;;5112532;28;20058;-73
2022/04/11 04:34:52;;;;;;;7.43;3.63;;;3.60;99.90;;;;;;5111850;28;20046;-73
2022/04/11 04:37:58;;;;;;;5.93;3.55;;;3.50;99.90;;;;;;5110903;28;20046;-72
2022/04/11 04:41:05;;;;;;;8.13;3.83;;;3.30;99.90;;;;;;5111832;28;20055;-72
2022/04/11 04:44:09;;;;;;;8.23;3.58;;;3.10;99.90;;;;;;5111232;28;20052;-72
2022/04/11 04:47:16;;;;;;;14.73;10.43;;;3.00;99.90;;;;;;5110683;28;20048;-72
2022/04/11 04:50:20;;;;;;;13.48;5.13;;;2.90;99.90;;;;;;5111572;28;20062;-72
2022/04/11 04:53:25;;;;;;;8.43;4.75;;;2.90;99.90;;;;;;5111491;28;20608;-72
2022/04/11 04:56:32;;;;;;;7.63;4.35;;;3.00;99.90;;;;;;5110774;28;20047;-72
2022/04/11 04:59:41;;;;;;;6.60;3.58;;;3.10;99.90;;;;;;5111144;28;20368;-72
2022/04/11 05:02:51;;;;;;;4.68;2.47;;;3.20;99.90;;;;;;5110214;28;20032;-72
2022/04/11 05:06:00;;;;;;;6.47;2.50;;;3.30;99.90;;;;;;5110681;28;20035;-72
2022/04/11 05:09:04;;;;;;;7.50;2.92;;;3.40;99.90;;;;;;5110673;28;20044;-73
2022/04/11 05:12:08;;;;;;;4.95;2.70;;;3.50;99.90;;;;;;5111935;28;20046;-72
2022/04/11 05:15:14;;;;;;;3.75;2.25;;;3.60;99.90;;;;;;5110613;28;20046;-72
2022/04/11 05:18:22;;;;;;;3.75;2.00;;;3.70;99.90;;;;;;5110293;28;20027;-72
2022/04/11 05:21:26;;;;;;;4.10;2.28;;;3.70;99.90;;;;;;5111686;28;20040;-73
2022/04/11 05:24:30;;;;;;;6.97;2.20;;;3.80;99.90;;;;;;5111503;28;20032;-72
2022/04/11 05:27:35;;;;;;;5.53;2.70;;;4.00;99.90;;;;;;5110841;28;20031;-73
2022/04/11 05:30:39;;;;;;;5.50;3.38;;;6.10;99.90;;;;;;5110503;28;20052;-73
2022/04/11 05:33:45;;;;;;;7.38;3.72;;;9.50;99.90;;;;;;5110610;28;20382;-73
2022/04/11 05:36:53;;;;;;;4.30;2.85;;;11.80;99.90;;;;;;5110077;28;20046;-73
2022/04/11 05:39:58;;;;;;;5.88;2.70;;;13.10;97.30;;;;;;5111170;28;20055;-73
2022/04/11 05:43:06;;;;;;;4.53;2.50;;;14.30;95.60;;;;;;5110578;28;20047;-72
2022/04/11 05:46:11;;;;;;;6.50;2.97;;;15.30;93.70;;;;;;5109866;28;20038;-73
2022/04/11 05:49:20;;;;;;;7.63;3.20;;;16.20;91.50;;;;;;5110417;28;20761;-73
2022/04/11 05:52:24;;;;;;;5.72;3.25;;;16.00;90.70;;;;;;5110634;28;20042;-73
2022/04/11 05:55:29;;;;;;;7.13;2.85;;;16.10;90.50;;;;;;5111407;28;20046;-73
2022/04/11 05:58:33;;;;;;;4.13;2.70;;;16.40;89.50;;;;;;5111283;28;20410;-73
2022/04/11 06:01:42;;;;;;;7.43;3.95;;;17.20;88.60;;;;;;5105866;28;20043;-74
2022/04/11 06:04:47;;;;;;;3.85;2.70;;;15.20;88.90;;;;;;5104857;28;20501;-74
2022/04/11 06:07:51;;;;;;;5.60;3.20;;;13.10;91.40;;;;;;5101899;28;20055;-74
2022/04/11 06:10:58;;;;;;;5.18;2.83;;;13.60;91.70;;;;;;5106144;28;20046;-73
2022/04/11 06:14:03;;;;;;;4.90;2.85;;;13.90;92.10;;;;;;5097554;28;20051;-73
2022/04/11 06:17:07;;;;;;;5.70;2.83;;;16.70;90.60;;;;;;5112425;28;20041;-74
2022/04/11 06:20:12;;;;;;;7.13;3.50;;;17.00;89.00;;;;;;5110592;28;20567;-73
2022/04/11 06:23:18;;;;;;;32.70;21.55;;;18.60;86.80;;;;;;5095086;28;20046;-73
2022/04/11 06:26:22;;;;;;;11.73;5.80;;;19.30;83.70;;;;;;5109215;28;20035;-73
2022/04/11 06:29:26;;;;;;;7.15;4.82;;;19.90;81.20;;;;;;5107666;28;20493;-73
2022/04/11 06:32:32;;;;;;;60.28;37.50;;;19.70;80.20;;;;;;5108525;28;20398;-73
2022/04/11 06:35:38;;;;;;;25.33;14.25;;;19.40;78.80;;;;;;5102649;28;20051;-73
2022/04/11 06:38:42;;;;;;;29.45;19.63;;;18.50;79.10;;;;;;5106573;28;20055;-73
2022/04/11 06:41:47;;;;;;;5.65;3.20;;;17.70;80.00;;;;;;5106156;28;20054;-74
2022/04/11 06:44:51;;;;;;;5.43;2.70;;;16.00;81.60;;;;;;5101102;28;20505;-74
2022/04/11 06:47:56;;;;;;;6.10;3.38;;;15.10;84.80;;;;;;5099362;28;20059;-74
2022/04/11 06:51:01;;;;;;;6.50;2.90;;;15.20;86.00;;;;;;5106224;28;20041;-74
2022/04/11 06:54:06;;;;;;;5.97;2.67;;;15.70;84.80;;;;;;5109852;28;20054;-74
2022/04/11 06:57:11;;;;;;;3.97;2.60;;;16.20;84.20;;;;;;5107194;28;20039;-72
2022/04/11 07:00:15;;;;;;;7.28;3.58;;;17.40;82.40;;;;;;5108239;28;20039;-71
2022/04/11 07:03:19;;;;;;;5.32;2.80;;;18.60;80.60;;;;;;5111229;28;20034;-74
2022/04/11 07:06:23;;;;;;;5.32;3.30;;;19.90;80.00;;;;;;5104444;28;20051;-73
2022/04/11 07:09:28;;;;;;;4.63;3.47;;;20.90;76.10;;;;;;5104831;28;20054;-73
2022/04/11 07:12:36;;;;;;;3.30;2.45;;;21.90;76.00;;;;;;5097793;28;20042;-72
2022/04/11 07:15:39;;;;;;;5.55;2.40;;;20.40;73.40;;;;;;5111657;28;20046;-74
2022/04/11 07:18:43;;;;;;;6.93;2.53;;;18.90;74.60;;;;;;5111317;28;20050;-73
2022/04/11 07:21:48;;;;;;;14.40;10.50;;;18.40;77.90;;;;;;5111979;28;20051;-73
2022/04/11 07:24:52;;;;;;;6.75;3.00;;;17.90;80.30;;;;;;5102391;28;20386;-73
2022/04/11 07:27:56;;;;;;;4.45;2.33;;;19.00;77.20;;;;;;5102925;28;20125;-73
2022/04/11 07:31:00;;;;;;;10.68;3.90;;;18.00;77.90;;;;;;5103823;28;20050;-73
2022/04/11 07:34:05;;;;;;;5.35;3.22;;;17.00;78.20;;;;;;5104772;28;20184;-74
2022/04/11 07:37:11;;;;;;;7.28;3.20;;;19.30;77.50;;;;;;5108245;28;20472;-74
2022/04/11 07:40:15;;;;;;;5.90;3.47;;;21.20;75.00;;;;;;5107275;28;20050;-72
2022/04/11 07:43:19;;;;;;;6.55;4.15;;;21.30;72.90;;;;;;5103794;28;20042;-72
2022/04/11 07:46:24;;;;;;;8.75;3.97;;;22.80;71.20;;;;;;5106050;28;20051;-72
2022/04/11 07:49:27;;;;;;;6.35;4.25;;;20.40;71.50;;;;;;5112127;28;20055;-71
2022/04/11 07:52:31;;;;;;;6.47;4.10;;;19.30;71.50;;;;;;5104420;28;20047;-72
2022/04/11 07:55:35;;;;;;;7.32;4.35;;;20.00;73.10;;;;;;5106125;28;20501;-72
2022/04/11 07:58:39;;;;;;;9.48;4.75;;;21.80;71.40;;;;;;5105005;28;20050;-72
2022/04/11 08:01:43;;;;;;;7.82;4.80;;;23.70;68.80;;;;;;5106911;28;20054;-71
2022/04/11 08:04:47;;;;;;;7.70;4.15;;;24.80;66.40;;;;;;5102039;28;20061;-70
2022/04/11 08:07:52;;;;;;;7.32;4.82;;;23.50;67.80;;;;;;5104916;28;20039;-72
2022/04/11 08:10:56;;;;;;;8.00;5.30;;;25.50;65.30;;;;;;5100104;28;20054;-71
2022/04/11 08:14:00;;;;;;;6.38;4.50;;;23.90;64.20;;;;;;5103502;28;20057;-73
2022/04/11 08:17:04;;;;;;;10.80;3.90;;;25.50;62.60;;;;;;5106993;28;20051;-71
2022/04/11 08:20:09;;;;;;;7.78;4.28;;;26.60;62.50;;;;;;5099458;28;20047;-71
2022/04/11 08:23:13;;;;;;;7.65;4.47;;;25.20;61.70;;;;;;5100682;28;20096;-72
2022/04/11 08:26:16;;;;;;;7.30;4.03;;;26.50;61.30;;;;;;5104908;28;20035;-71
2022/04/11 08:29:21;;;;;;;6.65;3.97;;;26.90;60.20;;;;;;5101661;28;20469;-71
2022/04/11 08:32:26;;;;;;;5.68;3.58;;;27.60;59.10;;;;;;5105794;28;20153;-71
2022/04/11 08:35:30;;;;;;;6.32;3.97;;;29.20;58.70;;;;;;5107922;28;20062;-71
2022/04/11 08:38:33;;;;;;;5.18;3.50;;;27.10;56.30;;;;;;5104283;28;19936;-71
2022/04/11 08:41:38;;;;;;;5.10;3.38;;;27.30;56.80;;;;;;5107193;28;20047;-72
2022/04/11 08:44:42;;;;;;;5.55;2.90;;;28.20;57.80;;;;;;5104826;28;20051;-71
2022/04/11 08:47:48;;;;;;;3.95;2.95;;;27.40;56.60;;;;;;5108099;28;20042;-72
2022/04/11 08:50:51;;;;;;;5.82;3.20;;;23.80;56.00;;;;;;5103503;28;20046;-71
2022/04/11 08:53:56;;;;;;;5.80;3.60;;;26.60;57.20;;;;;;5103804;28;20049;-70
2022/04/11 08:57:01;;;;;;;5.18;3.65;;;29.20;55.40;;;;;;5106688;28;20038;-71
2022/04/11 09:00:12;;;;;;;4.70;3.22;;;28.00;53.40;;;;;;5101481;28;20137;-71
2022/04/11 09:03:16;;;;;;;7.60;2.97;;;28.60;54.70;;;;;;5102817;28;20062;-71
2022/04/11 09:06:22;;;;;;;9.15;3.97;;;27.60;55.80;;;;;;5104921;28;20036;-72
2022/04/11 09:09:39;;;;;;;8.02;3.97;;;26.80;54.90;;;;;;5100515;28;20936;-71
2022/04/11 09:12:47;;;;;;;7.03;3.85;;;27.70;54.60;;;;;;5106314;28;20035;-72
2022/04/11 09:15:54;;;;;;;8.60;4.68;;;28.20;55.90;;;;;;5102096;28;20035;-71
2022/04/11 09:18:58;;;;;;;7.32;3.10;;;27.00;53.20;;;;;;5104099;28;20051;-72
2022/04/11 09:22:03;;;;;;;6.32;2.78;;;30.00;54.40;;;;;;5097782;28;20382;-73
2022/04/11 09:25:13;;;;;;;5.15;3.10;;;28.40;50.30;;;;;;5099278;28;20055;-70
2022/04/11 09:28:19;;;;;;;11.48;2.97;;;26.60;54.70;;;;;;5100815;28;20062;-73
2022/04/11 09:31:23;;;;;;;2.28;1.50;;;30.10;53.40;;;;;;5100733;28;20976;-71
2022/04/11 09:34:26;;;;;;;2.67;1.85;;;29.00;49.40;;;;;;5106848;28;20046;-73
2022/04/11 09:37:31;;;;;;;1.98;1.42;;;28.70;49.90;;;;;;5094724;28;20050;-73
2022/04/11 09:40:55;;;;;;;4.97;1.70;;;24.30;49.80;;;;;;5099037;28;20378;-73
2022/04/11 09:44:24;;;;;;;4.40;1.60;;;26.10;49.30;;;;;;5096843;28;20493;-72
2022/04/11 09:47:28;;;;;;;2.60;1.33;;;25.30;49.40;;;;;;5098815;28;20050;-73
2022/04/11 09:50:32;;;;;;;3.45;1.65;;;24.40;50.50;;;;;;5107680;28;20050;-72
2022/04/11 09:53:38;;;;;;;3.30;1.35;;;22.40;51.50;;;;;;5103416;28;20043;-74
2022/04/11 09:56:42;;;;;;;2.13;1.20;;;25.70;50.70;;;;;;5111894;28;20042;-74
2022/04/11 09:59:46;;;;;;;4.07;1.40;;;29.60;46.30;;;;;;5105066;28;20047;-74
2022/04/11 10:02:50;;;;;;;1.88;1.38;;;28.80;49.40;;;;;;5106922;28;20655;-75
2022/04/11 10:05:55;;;;;;;2.85;1.30;;;29.20;46.80;;;;;;5112905;28;20046;-74
2022/04/11 10:08:59;;;;;;;2.70;1.23;;;31.20;45.50;;;;;;5109233;28;20039;-73
2022/04/11 10:12:03;;;;;;;2.67;1.00;;;32.00;46.00;;;;;;5107174;28;20053;-74
2022/04/11 10:15:10;;;;;;;2.10;0.85;;;30.00;42.80;;;;;;5105376;28;20043;-74
2022/04/11 10:18:17;;;;;;;2.08;1.20;;;27.70;45.90;;;;;;5101339;28;20047;-73
2022/04/11 10:21:23;;;;;;;1.58;1.05;;;30.80;45.00;;;;;;5110911;28;20503;-74
2022/04/11 10:24:34;;;;;;;1.90;1.20;;;31.70;41.80;;;;;;5102785;28;20169;-71
2022/04/11 10:27:38;;;;;;;2.88;1.20;;;29.20;45.30;;;;;;5105105;28;20378;-72
2022/04/11 10:30:43;;;;;;;2.00;1.50;;;31.10;42.90;;;;;;5108333;28;20051;-72
2022/04/11 10:33:49;;;;;;;1.67;1.13;;;32.00;42.50;;;;;;5108716;28;20031;-73
2022/04/11 10:36:56;;;;;;;3.25;1.02;;;32.90;42.30;;;;;;5106970;28;20160;-74
2022/04/11 10:40:21;;;;;;;2.78;1.50;;;30.20;42.60;;;;;;5110929;28;20592;-72
2022/04/11 10:43:25;;;;;;;2.33;1.30;;;31.00;42.80;;;;;;5112541;28;20042;-72
2022/04/11 10:47:08;;;;;;;2.53;0.80;;;30.40;41.90;;;;;;5112673;28;20054;-72
2022/04/11 10:50:20;;;;;;;1.85;1.00;;;29.30;42.10;;;;;;5111788;28;20042;-72
2022/04/11 10:53:24;;;;;;;2.58;1.33;;;23.50;44.60;;;;;;5110320;28;20039;-72
2022/04/11 10:56:52;;;;;;;2.10;1.25;;;23.60;45.60;;;;;;5114043;28;20414;-72
2022/04/11 11:00:02;;;;;;;1.83;1.23;;;21.90;47.90;;;;;;5103451;28;20485;-72
2022/04/11 11:03:09;;;;;;;2.97;1.23;;;25.10;46.30;;;;;;5113632;28;20042;-73
2022/04/11 11:06:19;;;;;;;1.35;0.85;;;27.60;43.70;;;;;;5106882;28;20485;-73
2022/04/11 11:09:23;;;;;;;1.90;1.05;;;28.00;43.60;;;;;;5104681;28;20062;-73
2022/04/11 11:12:29;;;;;;;2.10;1.00;;;30.10;43.50;;;;;;5100625;28;20043;-73
2022/04/11 11:15:33;;;;;;;1.92;1.20;;;27.80;43.50;;;;;;5108663;28;20039;-73
2022/04/11 11:18:46;;;;;;;2.25;1.02;;;29.80;44.70;;;;;;5102306;28;20384;-73
2022/04/11 11:22:02;;;;;;;1.88;1.13;;;29.00;42.90;;;;;;5103748;28;20062;-72
2022/04/11 11:25:17;;;;;;;3.65;1.20;;;31.50;42.70;;;;;;5101786;28;20051;-72
2022/04/11 11:28:22;;;;;;;3.60;1.23;;;33.10;42.70;;;;;;5106643;28;20043;-73
2022/04/11 11:31:26;;;;;;;1.73;0.85;;;34.20;42.90;;;;;;5095847;28;20038;-65
2022/04/11 11:34:36;;;;;;;1.52;1.10;;;35.10;40.70;;;;;;5105608;28;20031;-65
2022/04/11 11:37:40;;;;;;;1.83;1.10;;;31.00;42.30;;;;;;5094019;28;20035;-65
2022/04/11 11:40:53;;;;;;;3.65;1.30;;;28.30;43.70;;;;;;5101701;28;20035;-66
2022/04/11 11:43:57;;;;;;;1.75;0.98;;;26.60;45.60;;;;;;5106088;28;20046;-64
2022/04/11 11:47:02;;;;;;;2.95;1.10;;;25.80;45.20;;;;;;5104342;28;20043;-65
2022/04/11 11:50:07;;;;;;;2.85;1.40;;;24.60;46.70;;;;;;5101952;28;20039;-64
2022/04/11 11:53:13;;;;;;;3.13;1.40;;;23.90;44.10;;;;;;5104599;28;21143;-65
2022/04/11 11:56:18;;;;;;;3.25;1.23;;;26.00;45.70;;;;;;5097647;28;20369;-66
2022/04/11 11:59:22;;;;;;;3.60;1.13;;;29.40;45.20;;;;;;5101353;28;20042;-65
2022/04/11 12:05:57;;;;;;;1.92;1.20;;;30.40;41.10;;;;;;5103004;28;20054;-65
2022/04/11 12:09:03;;;;;;;2.40;1.20;;;30.40;42.80;;;;;;5103650;28;20050;-66
2022/04/11 12:12:09;;;;;;;1.85;1.17;;;31.40;42.50;;;;;;5104507;28;20046;-66
2022/04/11 12:15:14;;;;;;;2.28;1.20;;;30.10;41.90;;;;;;5104326;28;20034;-65
2022/04/11 12:18:19;;;;;;;2.03;1.35;;;30.90;42.90;;;;;;5103850;28;20031;-66
2022/04/11 12:21:33;;;;;;;5.05;1.20;;;27.30;42.50;;;;;;5108362;28;20051;-64
2022/04/11 12:24:38;;;;;;;2.40;1.30;;;26.90;42.70;;;;;;5099510;28;20035;-64
2022/04/11 12:27:42;;;;;;;2.33;1.10;;;26.00;43.70;;;;;;5104160;28;20494;-65
2022/04/11 12:31:02;;;;;;;2.83;1.15;;;29.30;44.00;;;;;;5102751;28;20050;-65
2022/04/11 12:34:12;;;;;;;2.05;1.27;;;30.30;41.70;;;;;;5110302;28;20039;-65
2022/04/11 12:37:19;;;;;;;3.08;1.10;;;27.30;42.50;;;;;;5104297;28;20164;-65
2022/04/11 12:40:44;;;;;;;2.42;1.48;;;26.40;43.50;;;;;;5112395;28;20050;-64
2022/04/11 12:44:07;;;;;;;2.45;1.35;;;24.80;42.80;;;;;;5101386;28;20054;-65
2022/04/11 12:47:11;;;;;;;1.90;1.20;;;27.60;44.80;;;;;;5102745;28;20355;-67
2022/04/11 12:50:21;;;;;;;1.50;0.80;;;28.50;42.10;;;;;;5106250;28;20047;-65
2022/04/11 12:53:32;;;;;;;1.60;1.13;;;27.90;41.70;;;;;;5091232;28;20035;-65
2022/04/11 12:56:40;;;;;;;1.92;1.08;;;29.00;44.00;;;;;;5091192;28;20039;-66
2022/04/11 12:59:44;;;;;;;2.75;1.23;;;29.80;42.80;;;;;;5105040;28;20047;-65
2022/04/11 13:02:52;;;;;;;1.42;0.90;;;29.00;44.00;;;;;;5102885;28;20050;-66
2022/04/11 13:05:59;;;;;;;2.50;1.10;;;28.70;43.10;;;;;;5106245;28;20047;-65
2022/04/11 13:09:03;;;;;;;1.88;1.20;;;28.50;42.40;;;;;;5101109;28;20054;-64
2022/04/11 13:12:12;;;;;;;3.70;0.90;;;28.00;42.40;;;;;;5106659;28;20401;-65
2022/04/11 13:15:17;;;;;;;1.48;1.00;;;28.70;44.10;;;;;;5110049;28;20043;-65
2022/04/11 13:18:24;;;;;;;1.90;1.08;;;29.80;42.40;;;;;;5103592;28;20507;-65
2022/04/11 13:21:28;;;;;;;2.42;0.82;;;29.00;43.10;;;;;;5098557;28;20051;-64
2022/04/11 13:24:32;;;;;;;4.05;0.90;;;27.40;42.20;;;;;;5102313;28;20078;-64
2022/04/11 13:27:39;;;;;;;2.38;0.80;;;23.70;44.80;;;;;;5097424;28;20046;-65
2022/04/11 13:30:45;;;;;;;2.47;1.05;;;25.00;45.90;;;;;;5101319;28;20118;-66
2022/04/11 13:33:48;;;;;;;4.07;1.05;;;26.00;43.10;;;;;;5104011;28;20117;-65
2022/04/11 13:36:53;;;;;;;1.50;0.77;;;25.10;42.80;;;;;;5108147;28;20043;-65
2022/04/11 13:39:58;;;;;;;1.48;0.90;;;24.60;45.60;;;;;;5107543;28;20043;-65
2022/04/11 13:43:02;;;;;;;1.77;1.05;;;25.80;45.20;;;;;;5094730;28;20473;-65
2022/04/11 13:46:06;;;;;;;1.45;0.73;;;24.70;42.90;;;;;;5088165;28;20050;-64
2022/04/11 13:49:10;;;;;;;1.13;0.68;;;24.00;47.90;;;;;;5106394;28;20042;-65
2022/04/11 13:52:17;;;;;;;1.25;0.80;;;25.10;46.40;;;;;;5100523;28;20058;-64
2022/04/11 13:55:21;;;;;;;2.08;0.80;;;26.30;45.20;;;;;;5110736;28;20050;-63
2022/04/11 13:58:27;;;;;;;1.48;0.88;;;25.40;43.70;;;;;;5105845;28;20043;-65
2022/04/11 14:01:31;;;;;;;1.63;0.80;;;24.30;44.20;;;;;;5106438;28;20054;-64
2022/04/11 14:04:35;;;;;;;1.65;0.70;;;22.90;45.90;;;;;;5109920;28;20050;-66
2022/04/11 14:07:39;;;;;;;2.20;1.00;;;21.40;48.60;;;;;;5108146;28;20046;-65
2022/04/11 14:10:44;;;;;;;2.20;0.90;;;20.90;47.60;;;;;;5106125;28;20054;-65
2022/04/11 14:13:48;;;;;;;2.22;1.00;;;20.60;47.40;;;;;;5090896;28;20379;-65
2022/04/11 14:16:54;;;;;;;3.53;1.23;;;21.00;50.40;;;;;;5097849;28;20391;-65
2022/04/11 14:19:59;;;;;;;2.53;1.17;;;21.10;47.90;;;;;;5109522;28;20051;-66
2022/04/11 14:23:03;;;;;;;1.73;0.88;;;21.20;51.20;;;;;;5096456;28;20059;-65
2022/04/11 14:26:07;;;;;;;2.30;1.00;;;21.80;48.40;;;;;;5101883;28;20058;-65
2022/04/11 14:29:11;;;;;;;1.08;0.70;;;21.40;47.60;;;;;;5103992;28;20493;-65
2022/04/11 14:32:15;;;;;;;3.67;0.73;;;21.60;49.80;;;;;;5102305;28;20398;-66
2022/04/11 14:35:19;;;;;;;2.15;0.75;;;20.70;47.30;;;;;;5111443;28;20493;-66
2022/04/11 14:38:23;;;;;;;3.50;0.80;;;19.90;49.40;;;;;;5109760;28;20046;-66
2022/04/11 14:41:27;;;;;;;1.33;1.02;;;19.60;50.10;;;;;;5096074;28;20054;-66
2022/04/11 14:44:32;;;;;;;2.28;1.00;;;20.50;52.10;;;;;;5112723;28;20050;-66
2022/04/11 14:47:36;;;;;;;1.67;0.88;;;21.30;51.30;;;;;;5112463;28;20078;-66
2022/04/11 14:50:41;;;;;;;1.80;0.80;;;21.90;52.20;;;;;;5113238;28;20047;-65
2022/04/11 14:53:45;;;;;;;1.95;0.88;;;21.90;51.70;;;;;;5113334;28;20066;-65
2022/04/11 14:56:48;;;;;;;2.88;1.42;;;21.90;52.00;;;;;;5111046;28;20402;-66
2022/04/11 14:59:53;;;;;;;4.43;1.00;;;22.00;52.70;;;;;;5112208;28;20066;-66
2022/04/11 15:02:57;;;;;;;5.65;0.80;;;21.80;52.60;;;;;;5108297;28;20051;-66
2022/04/11 15:06:01;;;;;;;2.45;0.95;;;22.00;52.20;;;;;;5111453;28;20042;-66
2022/04/11 15:09:05;;;;;;;2.22;1.10;;;21.80;52.10;;;;;;5109962;28;20051;-66
2022/04/11 15:12:10;;;;;;;2.00;0.80;;;21.80;52.60;;;;;;5110852;28;20386;-66
2022/04/11 15:15:14;;;;;;;2.65;1.27;;;21.60;54.00;;;;;;5101073;28;20039;-63
2022/04/11 15:18:23;;;;;;;4.13;1.17;;;21.80;54.00;;;;;;5107849;28;20402;-65
2022/04/11 15:21:28;;;;;;;2.45;1.00;;;21.80;54.70;;;;;;5113179;28;20122;-65
2022/04/11 15:24:32;;;;;;;2.58;1.23;;;21.40;55.20;;;;;;5100869;28;20050;-65
2022/04/11 15:27:36;;;;;;;2.10;1.10;;;21.10;56.80;;;;;;5104845;28;20042;-65
2022/04/11 15:30:40;;;;;;;2.38;1.20;;;20.80;57.30;;;;;;5093719;28;20039;-64
2022/04/11 15:33:44;;;;;;;5.30;1.10;;;20.60;56.30;;;;;;5093620;28;20284;-65
2022/04/11 15:36:51;;;;;;;4.72;1.20;;;20.40;56.20;;;;;;5091978;28;20393;-64
2022/04/11 15:39:55;;;;;;;8.60;1.55;;;20.40;55.70;;;;;;5092661;28;20047;-65
2022/04/11 15:42:59;;;;;;;3.15;1.23;;;20.20;57.60;;;;;;5092258;28;20043;-65
2022/04/11 15:46:03;;;;;;;2.35;1.10;;;20.00;57.90;;;;;;5091088;28;20032;-65
2022/04/11 15:49:07;;;;;;;4.07;1.45;;;19.90;59.30;;;;;;5092110;28;20067;-65
2022/04/11 15:52:11;;;;;;;4.38;1.50;;;19.70;59.70;;;;;;5091944;28;20525;-65
2022/04/11 15:55:15;;;;;;;4.55;1.17;;;19.60;58.50;;;;;;5092073;28;20039;-65
2022/04/11 15:58:19;;;;;;;3.10;1.55;;;19.40;59.50;;;;;;5091798;28;20043;-65
2022/04/11 16:01:24;;;;;;;4.05;1.30;;;19.30;60.00;;;;;;5092019;28;20051;-65
2022/04/11 16:04:28;;;;;;;3.13;1.15;;;19.30;59.90;;;;;;5091990;28;20035;-63
2022/04/11 16:07:32;;;;;;;2.38;1.20;;;19.00;58.80;;;;;;5091223;28;20043;-65
2022/04/11 16:10:36;;;;;;;2.25;1.25;;;18.80;59.40;;;;;;5091706;28;20043;-65
2022/04/11 16:13:42;;;;;;;11.20;1.40;;;18.70;59.10;;;;;;5091316;28;20035;-66
2022/04/11 16:16:46;;;;;;;2.45;1.00;;;18.60;60.10;;;;;;5090890;28;20046;-66